UHBB

Details ICAO UHBB (BQS)
Name IGNATYEVO
Region Russia
Timezone Asia/Yakutsk (UTC+9.0)
Plans Departing 39
Arriving 37
Stats Elevation 638 ft / 194 m (AMSL)
Location 50.425395° 127.412489°
Runways 1
Magnetic Variation 12.262° W
Sunrise 2017-12-11 23:22:48 UTC / 2017-12-12 08:22:48 Local
Sunset 2017-12-12 07:27:54 UTC / 2017-12-12 16:27:54 Local
Advertisement - Login to hide

Runways

ID Width Length Bearing (true) Bearing (mag) Surface Threshold Offset Overrun Length
18 148 ft / 45 m 9,254 ft / 2,821 m 168.30° 180.56° Asphalt 0 ft / 0 m 145 ft / 44 m
36 148 ft / 45 m 9,254 ft / 2,821 m 348.30° 0.56° Asphalt 0 ft / 0 m 160 ft / 49 m

Approach Navaids

Runway Type Ident Frequency Range Bearing (true) Bearing (mag) Slope Elevation
36 Localiser ILZ 108.70 MHz 18 nm / 33 km 348.31° 0.57° - 638 ft / 194 m (AMSL)
36 Glidescope ILZ 108.70 MHz 10 nm / 19 km 348.30° 0.56° 3.05° 638 ft / 194 m (AMSL)

Map

Weather


0- 5 10 15 20 25 30 35+ Temperature / ° C

Clouds and Precipitation
Forecast for 2017-12-11 18:00 UTC. Updated 21 minutes ago

Ground ~20,000 ft ~40,000 ft Winds

METAR

UHBB 111500Z 35006MPS CAVOK M20/M27 Q1018 R36/420260 NOSIG RMK QFE746/0995

TAF

TAF UHBB 111355Z 1115/1215 35005MPS 9999 BKN020 TEMPO 1115/1201 2100 -SN SCT007 BKN020 BECMG 1200/1202 34006G11MPS

Frequencies

Tower 127.20 MHz BLAGOVESCHENSK START
Warning: Do not use this data for real-world aviation or navigation. No guarantee of current accuracy is given.